Time;durP1;ratioP1;P1;durP2;ratioP2;P2;SDS_P1;SDS_P2;PMS_P1;PMS_P2;Temp;Humidity;BMP_temperature;BMP_pressure;BME280_temperature;BME280_humidity;BME280_pressure;Samples;Min_cycle;Max_cycle;Signal;HPM_P1;HPM_P2
2023/05/27 00:04:21;;;;;;;;;;;;;;;12.71;100.00;98252.06;18560836;32;20047;-56
2023/05/27 00:14:25;;;;;;;;;;;;;;;12.59;100.00;98238.75;18561291;32;19956;-56
2023/05/27 00:24:30;;;;;;;;;;;;;;;12.46;100.00;98242.78;18561041;32;19964;-55
2023/05/27 00:34:35;;;;;;;;;;;;;;;12.36;100.00;98245.47;18560505;32;19941;-56
2023/05/27 00:44:40;;;;;;;;;;;;;;;12.25;100.00;98236.53;18560190;31;19961;-55
2023/05/27 00:54:45;;;;;;;;;;;;;;;12.15;100.00;98234.56;18559989;32;20301;-56
2023/05/27 01:04:48;;;;;;;;;;;;;;;12.09;100.00;98229.41;18559579;32;19961;-56
2023/05/27 01:14:54;;;;;;;;;;;;;;;12.00;100.00;98226.41;18564940;32;19949;-56
2023/05/27 01:24:57;;;;;;;;;;;;;;;11.96;100.00;98225.28;18556545;32;19973;-56
2023/05/27 01:35:22;;;;;;;;;;;;;;;11.87;100.00;98214.94;18570023;32;19996;-55
2023/05/27 01:45:25;;;;;;;;;;;;;;;11.76;100.00;98210.56;18568855;32;19956;-56
2023/05/27 01:55:30;;;;;;;;;;;;;;;11.64;100.00;98207.25;18554854;32;20009;-56
2023/05/27 02:05:35;;;;;;;;;;;;;;;11.54;100.00;98202.59;18568531;32;19967;-55
2023/05/27 02:15:38;;;;;;;;;;;;;;;11.42;100.00;98194.69;18567972;32;19956;-55
2023/05/27 02:25:41;;;;;;;;;;;;;;;11.28;100.00;98198.94;18567030;32;19997;-55
2023/05/27 02:35:43;;;;;;;;;;;;;;;11.19;100.00;98201.31;18565935;31;19963;-56
2023/05/27 02:45:46;;;;;;;;;;;;;;;11.09;100.00;98187.72;18566126;32;20373;-56
2023/05/27 02:55:50;;;;;;;;;;;;;;;10.99;100.00;98196.56;18565179;32;20291;-56
2023/05/27 03:05:53;;;;;;;;;;;;;;;10.91;100.00;98199.75;18564831;32;19989;-55
2023/05/27 03:15:56;;;;;;;;;;;;;;;10.80;100.00;98196.97;18564180;32;20003;-55
2023/05/27 03:25:59;;;;;;;;;;;;;;;10.71;100.00;98195.81;18563513;32;19960;-55
2023/05/27 03:36:02;;;;;;;;;;;;;;;10.59;100.00;98201.41;18562322;32;19970;-55
2023/05/27 03:46:06;;;;;;;;;;;;;;;10.48;100.00;98196.97;18562419;32;20062;-55
2023/05/27 03:56:09;;;;;;;;;;;;;;;10.42;100.00;98192.59;18561983;32;19957;-55
2023/05/27 04:06:11;;;;;;;;;;;;;;;10.33;100.00;98203.84;18562211;32;19979;-55
2023/05/27 04:16:21;;;;;;;;;;;;;;;10.33;100.00;98213.81;18561194;32;19972;-55
2023/05/27 04:26:37;;;;;;;;;;;;;;;10.38;100.00;98221.22;18545954;31;19972;-57
2023/05/27 04:36:52;;;;;;;;;;;;;;;10.48;100.00;98218.59;18560974;32;19945;-58
2023/05/27 04:46:54;;;;;;;;;;;;;;;10.64;100.00;98212.25;18562733;32;19948;-58
2023/05/27 04:56:58;;;;;;;;;;;;;;;10.83;100.00;98218.09;18572971;32;20029;-58
2023/05/27 05:07:01;;;;;;;;;;;;;;;11.08;100.00;98224.78;18545003;32;20321;-58
2023/05/27 05:17:04;;;;;;;;;;;;;;;11.34;100.00;98214.94;18571995;32;19993;-59
2023/05/27 05:27:07;;;;;;;;;;;;;;;11.67;100.00;98222.97;18570796;32;19967;-58
2023/05/27 05:37:13;;;;;;;;;;;;;;;12.03;100.00;98221.25;18570050;32;20341;-58
2023/05/27 05:47:16;;;;;;;;;;;;;;;12.40;100.00;98219.44;18569659;32;19992;-58
2023/05/27 05:57:19;;;;;;;;;;;;;;;12.72;100.00;98226.56;18569143;32;19971;-58
2023/05/27 06:07:24;;;;;;;;;;;;;;;13.07;100.00;98222.19;18568517;32;19975;-58
2023/05/27 06:17:32;;;;;;;;;;;;;;;13.48;100.00;98226.81;18567481;31;19948;-59
2023/05/27 06:27:56;;;;;;;;;;;;;;;13.90;100.00;98223.66;18567505;32;20290;-59
2023/05/27 06:38:11;;;;;;;;;;;;;;;14.47;100.00;98220.69;18540149;32;20371;-58
2023/05/27 06:48:14;;;;;;;;;;;;;;;14.93;100.00;98216.03;18552126;32;19956;-58
2023/05/27 06:58:17;;;;;;;;;;;;;;;15.25;100.00;98205.38;18565437;32;19988;-58
2023/05/27 07:08:19;;;;;;;;;;;;;;;15.56;100.00;98202.31;18564455;32;20294;-58
2023/05/27 07:18:22;;;;;;;;;;;;;;;15.95;100.00;98211.47;18564053;32;20235;-56
2023/05/27 07:28:25;;;;;;;;;;;;;;;16.27;100.00;98209.94;18563740;31;20355;-56
2023/05/27 07:38:28;;;;;;;;;;;;;;;16.62;100.00;98205.06;18563115;32;19980;-58
2023/05/27 07:48:31;;;;;;;;;;;;;;;17.05;100.00;98223.28;18548052;32;20332;-58
2023/05/27 07:58:34;;;;;;;;;;;;;;;17.42;100.00;98205.94;18562039;32;20273;-57
2023/05/27 08:08:37;;;;;;;;;;;;;;;17.78;100.00;98201.69;18547166;32;19964;-59
2023/05/27 08:18:40;;;;;;;;;;;;;;;18.07;99.38;98197.84;18546910;32;19957;-58
2023/05/27 08:28:46;;;;;;;;;;;;;;;18.32;93.46;98191.00;18572417;31;20344;-58
2023/05/27 08:38:49;;;;;;;;;;;;;;;18.62;95.74;98189.50;18573980;32;19961;-59
2023/05/27 08:48:54;;;;;;;;;;;;;;;18.96;88.64;98176.38;18573220;32;19960;-56
2023/05/27 08:59:00;;;;;;;;;;;;;;;19.21;90.63;98169.44;18572802;32;20332;-56
2023/05/27 09:09:03;;;;;;;;;;;;;;;19.70;88.29;98169.47;18557761;32;19953;-56
2023/05/27 09:19:14;;;;;;;;;;;;;;;20.11;83.68;98153.78;18571314;32;19993;-57
2023/05/27 09:29:18;;;;;;;;;;;;;;;20.32;77.57;98148.44;18570907;31;20283;-55
2023/05/27 09:39:23;;;;;;;;;;;;;;;20.58;80.73;98140.22;18569954;32;20375;-56
2023/05/27 09:49:30;;;;;;;;;;;;;;;20.77;76.91;98128.88;18543428;32;19987;-56
2023/05/27 09:59:34;;;;;;;;;;;;;;;21.04;75.28;98129.66;18568858;31;19960;-56
2023/05/27 10:09:38;;;;;;;;;;;;;;;21.47;71.69;98116.84;18554631;32;20208;-57
2023/05/27 10:19:50;;;;;;;;;;;;;;;21.90;73.79;98118.59;18568003;32;19967;-56
2023/05/27 10:29:59;;;;;;;;;;;;;;;22.26;66.62;98111.69;18567094;31;20253;-57
2023/05/27 10:40:06;;;;;;;;;;;;;;;22.51;66.14;98098.03;18566579;32;19952;-57
2023/05/27 10:50:14;;;;;;;;;;;;;;;22.75;62.87;98089.06;18565531;31;20320;-56
2023/05/27 11:00:20;;;;;;;;;;;;;;;23.02;60.14;98087.63;18565249;32;19976;-56
2023/05/27 11:10:23;;;;;;;;;;;;;;;23.64;65.23;98076.62;18550145;32;20004;-57
2023/05/27 11:20:33;;;;;;;;;;;;;;;24.07;67.05;98063.34;18564519;32;19983;-56
2023/05/27 11:30:36;;;;;;;;;;;;;;;24.26;59.44;98051.63;18549469;31;19952;-56
2023/05/27 11:40:40;;;;;;;;;;;;;;;24.64;56.64;98039.28;18548760;32;19983;-56
2023/05/27 11:50:43;;;;;;;;;;;;;;;24.84;60.13;98026.34;18547913;32;20020;-55
2023/05/27 12:00:47;;;;;;;;;;;;;;;25.15;58.76;98015.66;18547977;32;19953;-56
2023/05/27 12:10:53;;;;;;;;;;;;;;;25.54;56.66;98010.25;18547451;32;19976;-57
2023/05/27 12:20:56;;;;;;;;;;;;;;;25.93;57.20;97990.91;18561309;32;19967;-56
2023/05/27 12:30:59;;;;;;;;;;;;;;;26.67;55.49;97989.94;18560552;31;19998;-56
2023/05/27 12:41:03;;;;;;;;;;;;;;;27.00;55.39;97973.87;18560442;31;19963;-57
2023/05/27 12:51:06;;;;;;;;;;;;;;;27.07;49.52;97967.63;18560294;32;19985;-56
2023/05/27 13:01:10;;;;;;;;;;;;;;;27.37;51.24;97954.62;18559650;32;19960;-54
2023/05/27 13:11:13;;;;;;;;;;;;;;;27.90;51.55;97955.69;18566257;32;20305;-56
2023/05/27 13:21:17;;;;;;;;;;;;;;;28.44;56.53;97936.84;18571472;32;19960;-57
2023/05/27 13:31:20;;;;;;;;;;;;;;;28.93;50.25;97942.44;18570580;31;20336;-56
2023/05/27 13:41:25;;;;;;;;;;;;;;;29.23;47.20;97929.13;18556025;32;19961;-56
2023/05/27 13:51:29;;;;;;;;;;;;;;;29.53;42.65;97916.16;18569592;32;20023;-55
2023/05/27 14:01:34;;;;;;;;;;;;;;;29.81;43.91;97903.56;18569130;32;19949;-56
2023/05/27 14:11:38;;;;;;;;;;;;;;;30.24;41.13;97898.88;18555033;32;19960;-56
2023/05/27 14:21:40;;;;;;;;;;;;;;;30.81;41.71;97896.53;18552759;32;20351;-56
2023/05/27 14:31:46;;;;;;;;;;;;;;;30.78;48.39;97877.81;18552738;31;19964;-55
2023/05/27 14:41:49;;;;;;;;;;;;;;;31.01;39.39;97860.63;18552220;32;19956;-57
2023/05/27 14:51:52;;;;;;;;;;;;;;;31.13;38.87;97860.22;18565759;32;19982;-57
2023/05/27 15:01:55;;;;;;;;;;;;;;;29.37;38.81;97836.53;18565199;32;19953;-57
2023/05/27 15:11:58;;;;;;;;;;;;;;;28.05;43.57;97823.25;18564603;32;19957;-57
2023/05/27 15:22:05;;;;;;;;;;;;;;;27.60;41.57;97823.22;18564063;32;19963;-57
2023/05/27 15:32:09;;;;;;;;;;;;;;;26.93;44.14;97816.41;18562734;32;19975;-57
2023/05/27 15:42:13;;;;;;;;;;;;;;;26.74;45.75;97806.22;18548474;32;19961;-56
2023/05/27 15:52:16;;;;;;;;;;;;;;;26.35;47.23;97807.22;18562417;32;19977;-56
2023/05/27 16:02:20;;;;;;;;;;;;;;;25.93;48.42;97791.44;18561767;32;19981;-56
2023/05/27 16:12:23;;;;;;;;;;;;;;;25.68;48.72;97800.09;18547748;32;19968;-55
2023/05/27 16:22:35;;;;;;;;;;;;;;;25.54;49.41;97797.06;18560897;32;20297;-55
2023/05/27 16:32:39;;;;;;;;;;;;;;;25.46;51.14;97781.47;18560567;31;20372;-55
2023/05/27 16:42:46;;;;;;;;;;;;;;;25.55;48.41;97793.13;18562553;32;20276;-55
2023/05/27 16:52:49;;;;;;;;;;;;;;;26.05;46.59;97779.38;18573816;32;19956;-56
2023/05/27 17:02:53;;;;;;;;;;;;;;;25.59;48.52;97785.69;18558651;32;19956;-54
2023/05/27 17:12:57;;;;;;;;;;;;;;;25.30;49.10;97776.03;18572094;32;19963;-56
2023/05/27 17:23:00;;;;;;;;;;;;;;;24.86;49.74;97777.09;18557543;32;19967;-54
2023/05/27 17:33:04;;;;;;;;;;;;;;;24.50;51.21;97773.50;18571111;31;20285;-57
2023/05/27 17:43:07;;;;;;;;;;;;;;;24.26;49.93;97764.28;18570195;32;19952;-56
2023/05/27 17:53:10;;;;;;;;;;;;;;;23.98;51.77;97773.47;18569281;32;19968;-55
2023/05/27 18:03:13;;;;;;;;;;;;;;;24.11;53.66;97782.47;18569316;32;19957;-56
2023/05/27 18:13:17;;;;;;;;;;;;;;;24.19;54.51;97794.50;18568389;32;19941;-56
2023/05/27 18:23:20;;;;;;;;;;;;;;;23.13;59.80;97786.56;18553288;32;19996;-56
2023/05/27 18:33:24;;;;;;;;;;;;;;;22.41;65.12;97785.19;18566983;32;19961;-56
2023/05/27 18:43:30;;;;;;;;;;;;;;;21.74;75.99;97790.84;18552718;32;20275;-56
2023/05/27 18:53:34;;;;;;;;;;;;;;;21.18;79.96;97798.66;18551715;32;19961;-56
2023/05/27 19:03:37;;;;;;;;;;;;;;;20.60;84.60;97811.00;18565211;31;19976;-56
2023/05/27 19:13:39;;;;;;;;;;;;;;;19.95;97.47;97811.19;18564961;32;19960;-55
2023/05/27 19:23:42;;;;;;;;;;;;;;;19.30;100.00;97816.59;18564425;32;19960;-56
2023/05/27 19:33:46;;;;;;;;;;;;;;;18.76;100.00;97819.63;18563193;32;19953;-56
2023/05/27 19:43:48;;;;;;;;;;;;;;;18.25;100.00;97821.09;18562791;32;20048;-55
2023/05/27 19:53:56;;;;;;;;;;;;;;;17.81;100.00;97820.87;18562396;32;19948;-55
2023/05/27 20:03:59;;;;;;;;;;;;;;;17.44;100.00;97828.37;18561716;32;20242;-55
2023/05/27 20:14:02;;;;;;;;;;;;;;;17.10;100.00;97830.56;18561409;32;19956;-55
2023/05/27 20:24:05;;;;;;;;;;;;;;;16.85;100.00;97839.28;18561208;32;19997;-55
2023/05/27 20:34:07;;;;;;;;;;;;;;;16.65;100.00;97837.81;18560577;32;20238;-56
2023/05/27 20:44:10;;;;;;;;;;;;;;;16.39;100.00;97830.16;18560979;32;19971;-55
2023/05/27 20:54:12;;;;;;;;;;;;;;;16.12;100.00;97847.34;18560074;31;19952;-54
2023/05/27 21:04:15;;;;;;;;;;;;;;;15.80;100.00;97844.37;18559947;32;19991;-55
2023/05/27 21:14:18;;;;;;;;;;;;;;;15.54;100.00;97842.03;18559857;32;19983;-55
2023/05/27 21:24:21;;;;;;;;;;;;;;;15.29;100.00;97842.47;18559695;32;19987;-56
2023/05/27 21:34:23;;;;;;;;;;;;;;;15.00;100.00;97840.72;18567210;32;19944;-55
2023/05/27 21:44:28;;;;;;;;;;;;;;;14.74;100.00;97830.19;18570354;32;19967;-54
2023/05/27 21:54:31;;;;;;;;;;;;;;;14.47;100.00;97834.31;18569616;32;20329;-55
2023/05/27 22:04:33;;;;;;;;;;;;;;;14.26;100.00;97824.78;18568983;32;19961;-54
2023/05/27 22:14:38;;;;;;;;;;;;;;;14.01;100.00;97815.81;18568546;32;19952;-55
2023/05/27 22:24:40;;;;;;;;;;;;;;;13.77;100.00;97816.59;18553743;32;20000;-54
2023/05/27 22:34:42;;;;;;;;;;;;;;;13.58;100.00;97818.41;18566769;32;19964;-55
2023/05/27 22:44:45;;;;;;;;;;;;;;;13.39;100.00;97816.41;18551270;31;20318;-54
2023/05/27 22:54:47;;;;;;;;;;;;;;;13.19;100.00;97820.87;18566468;32;19957;-55
2023/05/27 23:04:50;;;;;;;;;;;;;;;13.02;100.00;97823.19;18565849;32;20004;-54
2023/05/27 23:14:53;;;;;;;;;;;;;;;12.82;100.00;97813.28;18564572;32;19960;-54
2023/05/27 23:24:55;;;;;;;;;;;;;;;12.67;100.00;97814.16;18564141;32;19961;-53
2023/05/27 23:34:57;;;;;;;;;;;;;;;12.52;100.00;97815.84;18563432;32;19995;-55
2023/05/27 23:45:00;;;;;;;;;;;;;;;12.39;100.00;97811.06;18562958;32;19990;-55
2023/05/27 23:55:04;;;;;;;;;;;;;;;12.24;100.00;97797.56;18562235;32;19953;-55
